sensor_id;sensor_type;location;lat;lon;timestamp;temperature;humidity
20862;DHT22;10591;52.532;13.348;2023-07-29T00:01:25;17.36;88.39
20862;DHT22;10591;52.532;13.348;2023-07-29T00:03:56;17.36;88.39
20862;DHT22;10591;52.532;13.348;2023-07-29T00:06:27;17.40;88.40
20862;DHT22;10591;52.532;13.348;2023-07-29T00:08:58;17.62;88.33
20862;DHT22;10591;52.532;13.348;2023-07-29T00:11:29;17.40;88.37
20862;DHT22;10591;52.532;13.348;2023-07-29T00:14:02;17.32;88.40
20862;DHT22;10591;52.532;13.348;2023-07-29T00:16:33;17.28;88.41
20862;DHT22;10591;52.532;13.348;2023-07-29T00:19:04;17.27;88.43
20862;DHT22;10591;52.532;13.348;2023-07-29T00:21:35;17.22;88.45
20862;DHT22;10591;52.532;13.348;2023-07-29T00:24:08;17.22;88.47
20862;DHT22;10591;52.532;13.348;2023-07-29T00:26:39;17.22;88.45
20862;DHT22;10591;52.532;13.348;2023-07-29T00:29:09;17.16;88.46
20862;DHT22;10591;52.532;13.348;2023-07-29T00:31:40;17.17;88.41
20862;DHT22;10591;52.532;13.348;2023-07-29T00:34:10;17.17;88.42
20862;DHT22;10591;52.532;13.348;2023-07-29T00:36:42;17.22;88.40
20862;DHT22;10591;52.532;13.348;2023-07-29T00:39:13;17.20;88.33
20862;DHT22;10591;52.532;13.348;2023-07-29T00:41:47;17.15;88.32
20862;DHT22;10591;52.532;13.348;2023-07-29T00:44:17;17.28;88.30
20862;DHT22;10591;52.532;13.348;2023-07-29T00:46:50;17.30;88.21
20862;DHT22;10591;52.532;13.348;2023-07-29T00:49:22;17.30;88.16
20862;DHT22;10591;52.532;13.348;2023-07-29T00:51:53;17.22;88.18
20862;DHT22;10591;52.532;13.348;2023-07-29T00:54:23;17.16;88.20
20862;DHT22;10591;52.532;13.348;2023-07-29T00:56:54;17.18;88.23
20862;DHT22;10591;52.532;13.348;2023-07-29T00:59:25;17.16;88.25
20862;DHT22;10591;52.532;13.348;2023-07-29T01:01:57;17.19;88.23
20862;DHT22;10591;52.532;13.348;2023-07-29T01:04:28;17.14;88.22
20862;DHT22;10591;52.532;13.348;2023-07-29T01:07:06;17.08;88.24
20862;DHT22;10591;52.532;13.348;2023-07-29T01:09:51;17.02;88.28
20862;DHT22;10591;52.532;13.348;2023-07-29T01:15:17;16.99;88.28
20862;DHT22;10591;52.532;13.348;2023-07-29T01:17:55;16.98;88.28
20862;DHT22;10591;52.532;13.348;2023-07-29T01:20:26;16.90;88.30
20862;DHT22;10591;52.532;13.348;2023-07-29T01:22:58;16.90;88.34
20862;DHT22;10591;52.532;13.348;2023-07-29T01:25:29;16.88;88.34
20862;DHT22;10591;52.532;13.348;2023-07-29T01:27:59;16.87;88.34
20862;DHT22;10591;52.532;13.348;2023-07-29T01:30:35;16.98;88.27
20862;DHT22;10591;52.532;13.348;2023-07-29T01:33:26;16.84;88.29
20862;DHT22;10591;52.532;13.348;2023-07-29T01:36:07;16.83;88.31
20862;DHT22;10591;52.532;13.348;2023-07-29T01:38:40;16.90;88.30
20862;DHT22;10591;52.532;13.348;2023-07-29T01:41:13;16.84;88.26
20862;DHT22;10591;52.532;13.348;2023-07-29T01:43:45;16.78;88.27
20862;DHT22;10591;52.532;13.348;2023-07-29T01:46:16;16.71;88.30
20862;DHT22;10591;52.532;13.348;2023-07-29T01:48:47;16.66;88.34
20862;DHT22;10591;52.532;13.348;2023-07-29T01:51:18;16.61;88.35
20862;DHT22;10591;52.532;13.348;2023-07-29T01:53:48;16.58;88.36
20862;DHT22;10591;52.532;13.348;2023-07-29T01:56:19;16.63;88.38
20862;DHT22;10591;52.532;13.348;2023-07-29T01:58:50;16.67;88.31
20862;DHT22;10591;52.532;13.348;2023-07-29T02:01:20;16.67;88.34
20862;DHT22;10591;52.532;13.348;2023-07-29T02:03:51;16.65;88.33
20862;DHT22;10591;52.532;13.348;2023-07-29T02:06:24;16.61;88.30
20862;DHT22;10591;52.532;13.348;2023-07-29T02:08:56;16.63;88.30
20862;DHT22;10591;52.532;13.348;2023-07-29T02:11:27;16.60;88.27
20862;DHT22;10591;52.532;13.348;2023-07-29T02:13:58;16.59;88.22
20862;DHT22;10591;52.532;13.348;2023-07-29T02:16:28;16.64;88.23
20862;DHT22;10591;52.532;13.348;2023-07-29T02:19:01;16.62;88.22
20862;DHT22;10591;52.532;13.348;2023-07-29T02:21:34;16.60;88.25
20862;DHT22;10591;52.532;13.348;2023-07-29T02:24:04;16.60;88.23
20862;DHT22;10591;52.532;13.348;2023-07-29T02:26:35;16.58;88.25
20862;DHT22;10591;52.532;13.348;2023-07-29T02:29:06;16.58;88.22
20862;DHT22;10591;52.532;13.348;2023-07-29T02:31:37;16.57;88.19
20862;DHT22;10591;52.532;13.348;2023-07-29T02:34:08;16.58;88.20
20862;DHT22;10591;52.532;13.348;2023-07-29T02:36:40;16.60;88.18
20862;DHT22;10591;52.532;13.348;2023-07-29T02:39:11;16.60;88.18
20862;DHT22;10591;52.532;13.348;2023-07-29T02:41:42;16.68;88.15
20862;DHT22;10591;52.532;13.348;2023-07-29T02:44:13;16.55;88.17
20862;DHT22;10591;52.532;13.348;2023-07-29T02:46:43;16.54;88.19
20862;DHT22;10591;52.532;13.348;2023-07-29T02:49:14;16.52;88.21
20862;DHT22;10591;52.532;13.348;2023-07-29T02:51:45;16.52;88.25
20862;DHT22;10591;52.532;13.348;2023-07-29T02:54:15;16.50;88.23
20862;DHT22;10591;52.532;13.348;2023-07-29T02:56:46;16.43;88.25
20862;DHT22;10591;52.532;13.348;2023-07-29T02:59:17;16.48;88.22
20862;DHT22;10591;52.532;13.348;2023-07-29T03:01:47;16.48;88.20
20862;DHT22;10591;52.532;13.348;2023-07-29T03:04:18;16.45;88.19
20862;DHT22;10591;52.532;13.348;2023-07-29T03:06:49;16.46;88.22
20862;DHT22;10591;52.532;13.348;2023-07-29T03:09:19;16.51;88.16
20862;DHT22;10591;52.532;13.348;2023-07-29T03:11:50;16.52;88.21
20862;DHT22;10591;52.532;13.348;2023-07-29T03:14:22;16.53;88.17
20862;DHT22;10591;52.532;13.348;2023-07-29T03:16:52;16.46;88.19
20862;DHT22;10591;52.532;13.348;2023-07-29T03:19:23;16.44;88.21
20862;DHT22;10591;52.532;13.348;2023-07-29T03:21:54;16.48;88.20
20862;DHT22;10591;52.532;13.348;2023-07-29T03:24:25;16.44;88.19
20862;DHT22;10591;52.532;13.348;2023-07-29T03:26:55;16.41;88.23
20862;DHT22;10591;52.532;13.348;2023-07-29T03:29:26;16.49;88.20
20862;DHT22;10591;52.532;13.348;2023-07-29T03:31:57;16.48;88.15
20862;DHT22;10591;52.532;13.348;2023-07-29T03:34:29;16.40;88.18
20862;DHT22;10591;52.532;13.348;2023-07-29T03:37:01;16.41;88.18
20862;DHT22;10591;52.532;13.348;2023-07-29T03:39:31;16.41;88.18
20862;DHT22;10591;52.532;13.348;2023-07-29T03:42:03;16.37;88.17
20862;DHT22;10591;52.532;13.348;2023-07-29T03:44:34;16.36;88.22
20862;DHT22;10591;52.532;13.348;2023-07-29T03:47:05;16.35;88.24
20862;DHT22;10591;52.532;13.348;2023-07-29T03:49:36;16.36;88.22
20862;DHT22;10591;52.532;13.348;2023-07-29T03:52:07;16.42;88.16
20862;DHT22;10591;52.532;13.348;2023-07-29T03:54:37;16.42;88.14
20862;DHT22;10591;52.532;13.348;2023-07-29T03:57:08;16.40;88.13
20862;DHT22;10591;52.532;13.348;2023-07-29T03:59:39;16.48;88.13
20862;DHT22;10591;52.532;13.348;2023-07-29T04:02:10;16.43;88.14
20862;DHT22;10591;52.532;13.348;2023-07-29T04:04:40;16.51;88.07
20862;DHT22;10591;52.532;13.348;2023-07-29T04:07:13;16.62;88.00
20862;DHT22;10591;52.532;13.348;2023-07-29T04:09:44;16.56;88.01
20862;DHT22;10591;52.532;13.348;2023-07-29T04:12:15;16.52;88.03
20862;DHT22;10591;52.532;13.348;2023-07-29T04:14:46;16.54;88.02
20862;DHT22;10591;52.532;13.348;2023-07-29T04:17:16;16.59;88.01
20862;DHT22;10591;52.532;13.348;2023-07-29T04:19:47;16.59;88.01
20862;DHT22;10591;52.532;13.348;2023-07-29T04:22:18;16.59;88.02
20862;DHT22;10591;52.532;13.348;2023-07-29T04:24:49;16.68;88.01
20862;DHT22;10591;52.532;13.348;2023-07-29T04:27:19;16.76;87.99
20862;DHT22;10591;52.532;13.348;2023-07-29T04:29:50;16.87;87.92
20862;DHT22;10591;52.532;13.348;2023-07-29T04:32:21;17.10;87.87
20862;DHT22;10591;52.532;13.348;2023-07-29T04:34:51;17.24;87.79
20862;DHT22;10591;52.532;13.348;2023-07-29T04:37:25;17.40;87.67
20862;DHT22;10591;52.532;13.348;2023-07-29T04:39:58;17.40;87.55
20862;DHT22;10591;52.532;13.348;2023-07-29T04:42:29;17.54;87.54
20862;DHT22;10591;52.532;13.348;2023-07-29T04:45:02;17.59;87.32
20862;DHT22;10591;52.532;13.348;2023-07-29T04:47:32;17.66;87.16
20862;DHT22;10591;52.532;13.348;2023-07-29T04:50:03;17.85;87.37
20862;DHT22;10591;52.532;13.348;2023-07-29T04:52:34;18.02;87.44
20862;DHT22;10591;52.532;13.348;2023-07-29T04:55:05;18.32;87.21
20862;DHT22;10591;52.532;13.348;2023-07-29T04:57:36;18.29;86.41
20862;DHT22;10591;52.532;13.348;2023-07-29T05:00:07;18.19;86.17
20862;DHT22;10591;52.532;13.348;2023-07-29T05:02:39;18.38;86.02
20862;DHT22;10591;52.532;13.348;2023-07-29T05:05:10;18.82;85.39
20862;DHT22;10591;52.532;13.348;2023-07-29T05:07:42;19.36;83.15
20862;DHT22;10591;52.532;13.348;2023-07-29T05:10:12;20.59;79.20
20862;DHT22;10591;52.532;13.348;2023-07-29T05:12:43;22.12;74.50
20862;DHT22;10591;52.532;13.348;2023-07-29T05:15:14;23.66;70.34
20862;DHT22;10591;52.532;13.348;2023-07-29T05:17:45;22.82;70.59
20862;DHT22;10591;52.532;13.348;2023-07-29T05:20:15;22.45;73.00
20862;DHT22;10591;52.532;13.348;2023-07-29T05:22:46;24.34;68.05
20862;DHT22;10591;52.532;13.348;2023-07-29T05:25:17;25.18;63.80
20862;DHT22;10591;52.532;13.348;2023-07-29T05:27:48;25.64;63.74
20862;DHT22;10591;52.532;13.348;2023-07-29T05:30:19;25.56;61.95
20862;DHT22;10591;52.532;13.348;2023-07-29T05:32:49;25.41;63.39
20862;DHT22;10591;52.532;13.348;2023-07-29T05:35:20;24.60;65.18
20862;DHT22;10591;52.532;13.348;2023-07-29T05:37:51;23.02;69.55
20862;DHT22;10591;52.532;13.348;2023-07-29T05:40:23;22.44;71.65
20862;DHT22;10591;52.532;13.348;2023-07-29T05:42:53;22.24;72.68
20862;DHT22;10591;52.532;13.348;2023-07-29T05:45:27;22.12;72.96
20862;DHT22;10591;52.532;13.348;2023-07-29T05:47:59;22.55;71.94
20862;DHT22;10591;52.532;13.348;2023-07-29T05:50:30;23.60;69.55
20862;DHT22;10591;52.532;13.348;2023-07-29T05:53:00;25.56;64.22
20862;DHT22;10591;52.532;13.348;2023-07-29T05:55:31;26.68;60.80
20862;DHT22;10591;52.532;13.348;2023-07-29T05:58:01;29.68;53.13
20862;DHT22;10591;52.532;13.348;2023-07-29T06:00:32;30.98;50.29
20862;DHT22;10591;52.532;13.348;2023-07-29T06:03:03;32.01;47.11
20862;DHT22;10591;52.532;13.348;2023-07-29T06:05:34;32.18;45.78
20862;DHT22;10591;52.532;13.348;2023-07-29T06:08:05;29.70;50.71
20862;DHT22;10591;52.532;13.348;2023-07-29T06:10:37;28.21;54.40
20862;DHT22;10591;52.532;13.348;2023-07-29T06:13:07;28.72;54.15
20862;DHT22;10591;52.532;13.348;2023-07-29T06:15:38;28.28;54.40
20862;DHT22;10591;52.532;13.348;2023-07-29T06:18:09;28.84;54.10
20862;DHT22;10591;52.532;13.348;2023-07-29T06:20:40;30.69;50.21
20862;DHT22;10591;52.532;13.348;2023-07-29T06:23:10;30.81;49.44
20862;DHT22;10591;52.532;13.348;2023-07-29T06:25:41;29.52;52.12
20862;DHT22;10591;52.532;13.348;2023-07-29T06:28:11;32.71;45.61
20862;DHT22;10591;52.532;13.348;2023-07-29T06:30:42;34.22;42.93
20862;DHT22;10591;52.532;13.348;2023-07-29T06:33:13;30.23;49.64
20862;DHT22;10591;52.532;13.348;2023-07-29T06:35:45;28.82;52.56
20862;DHT22;10591;52.532;13.348;2023-07-29T06:38:17;28.00;55.50
20862;DHT22;10591;52.532;13.348;2023-07-29T06:40:50;31.16;48.73
20862;DHT22;10591;52.532;13.348;2023-07-29T06:43:21;32.25;46.16
20862;DHT22;10591;52.532;13.348;2023-07-29T06:45:53;32.28;45.96
20862;DHT22;10591;52.532;13.348;2023-07-29T06:48:25;32.41;44.76
20862;DHT22;10591;52.532;13.348;2023-07-29T06:50:55;34.06;42.91
20862;DHT22;10591;52.532;13.348;2023-07-29T06:53:28;33.17;44.11
20862;DHT22;10591;52.532;13.348;2023-07-29T06:56:01;31.90;45.62
20862;DHT22;10591;52.532;13.348;2023-07-29T06:58:32;30.58;49.21
20862;DHT22;10591;52.532;13.348;2023-07-29T07:01:02;29.12;52.37
20862;DHT22;10591;52.532;13.348;2023-07-29T07:03:33;28.54;54.05
20862;DHT22;10591;52.532;13.348;2023-07-29T07:06:04;27.15;57.17
20862;DHT22;10591;52.532;13.348;2023-07-29T07:08:36;26.71;59.49
20862;DHT22;10591;52.532;13.348;2023-07-29T07:11:07;26.13;60.89
20862;DHT22;10591;52.532;13.348;2023-07-29T07:13:38;26.02;61.45
20862;DHT22;10591;52.532;13.348;2023-07-29T07:16:08;26.17;61.20
20862;DHT22;10591;52.532;13.348;2023-07-29T07:18:39;25.79;62.56
20862;DHT22;10591;52.532;13.348;2023-07-29T07:21:10;25.64;62.89
20862;DHT22;10591;52.532;13.348;2023-07-29T07:23:41;24.86;64.72
20862;DHT22;10591;52.532;13.348;2023-07-29T07:26:11;24.32;66.56
20862;DHT22;10591;52.532;13.348;2023-07-29T07:28:42;23.81;68.38
20862;DHT22;10591;52.532;13.348;2023-07-29T07:31:13;24.01;68.13
20862;DHT22;10591;52.532;13.348;2023-07-29T07:33:47;23.91;68.66
20862;DHT22;10591;52.532;13.348;2023-07-29T07:36:17;24.06;67.97
20862;DHT22;10591;52.532;13.348;2023-07-29T07:38:48;24.04;67.85
20862;DHT22;10591;52.532;13.348;2023-07-29T07:41:20;24.28;67.51
20862;DHT22;10591;52.532;13.348;2023-07-29T07:43:51;24.02;68.05
20862;DHT22;10591;52.532;13.348;2023-07-29T07:46:22;24.08;67.71
20862;DHT22;10591;52.532;13.348;2023-07-29T07:48:53;24.28;67.75
20862;DHT22;10591;52.532;13.348;2023-07-29T07:51:24;24.82;66.71
20862;DHT22;10591;52.532;13.348;2023-07-29T07:53:54;25.35;64.74
20862;DHT22;10591;52.532;13.348;2023-07-29T07:56:25;25.87;63.32
20862;DHT22;10591;52.532;13.348;2023-07-29T07:58:56;25.85;62.77
20862;DHT22;10591;52.532;13.348;2023-07-29T08:01:36;24.66;66.01
20862;DHT22;10591;52.532;13.348;2023-07-29T08:04:07;24.79;65.83
20862;DHT22;10591;52.532;13.348;2023-07-29T08:06:39;24.57;66.10
20862;DHT22;10591;52.532;13.348;2023-07-29T08:09:09;24.48;66.47
20862;DHT22;10591;52.532;13.348;2023-07-29T08:11:40;24.33;66.82
20862;DHT22;10591;52.532;13.348;2023-07-29T08:14:11;24.55;66.55
20862;DHT22;10591;52.532;13.348;2023-07-29T08:16:41;24.74;66.02
20862;DHT22;10591;52.532;13.348;2023-07-29T08:19:12;24.62;66.21
20862;DHT22;10591;52.532;13.348;2023-07-29T08:21:43;25.11;64.67
20862;DHT22;10591;52.532;13.348;2023-07-29T08:24:13;25.34;64.07
20862;DHT22;10591;52.532;13.348;2023-07-29T08:26:44;25.31;64.41
20862;DHT22;10591;52.532;13.348;2023-07-29T08:29:15;25.82;62.92
20862;DHT22;10591;52.532;13.348;2023-07-29T08:31:47;25.71;62.75
20862;DHT22;10591;52.532;13.348;2023-07-29T08:34:18;26.06;62.23
20862;DHT22;10591;52.532;13.348;2023-07-29T08:36:49;26.08;61.88
20862;DHT22;10591;52.532;13.348;2023-07-29T08:39:20;25.82;62.62
20862;DHT22;10591;52.532;13.348;2023-07-29T08:41:57;26.04;62.18
20862;DHT22;10591;52.532;13.348;2023-07-29T08:44:30;26.05;61.82
20862;DHT22;10591;52.532;13.348;2023-07-29T08:47:02;25.79;63.13
20862;DHT22;10591;52.532;13.348;2023-07-29T08:49:36;26.15;61.98
20862;DHT22;10591;52.532;13.348;2023-07-29T08:52:07;25.79;62.59
20862;DHT22;10591;52.532;13.348;2023-07-29T08:54:39;25.96;62.40
20862;DHT22;10591;52.532;13.348;2023-07-29T08:57:10;25.96;62.70
20862;DHT22;10591;52.532;13.348;2023-07-29T08:59:42;25.86;63.14
20862;DHT22;10591;52.532;13.348;2023-07-29T09:02:13;25.53;63.39
20862;DHT22;10591;52.532;13.348;2023-07-29T09:04:43;25.57;63.15
20862;DHT22;10591;52.532;13.348;2023-07-29T09:07:14;25.94;62.16
20862;DHT22;10591;52.532;13.348;2023-07-29T09:09:45;26.02;61.78
20862;DHT22;10591;52.532;13.348;2023-07-29T09:12:16;26.60;60.75
20862;DHT22;10591;52.532;13.348;2023-07-29T09:14:47;26.54;60.68
20862;DHT22;10591;52.532;13.348;2023-07-29T09:17:20;25.86;62.06
20862;DHT22;10591;52.532;13.348;2023-07-29T09:19:53;26.35;60.65
20862;DHT22;10591;52.532;13.348;2023-07-29T09:22:24;26.55;60.01
20862;DHT22;10591;52.532;13.348;2023-07-29T09:24:58;27.06;59.08
20862;DHT22;10591;52.532;13.348;2023-07-29T09:27:29;27.30;58.56
20862;DHT22;10591;52.532;13.348;2023-07-29T09:30:02;27.50;57.94
20862;DHT22;10591;52.532;13.348;2023-07-29T09:32:33;27.26;58.18
20862;DHT22;10591;52.532;13.348;2023-07-29T09:35:09;26.84;59.10
20862;DHT22;10591;52.532;13.348;2023-07-29T09:37:38;26.97;58.85
20862;DHT22;10591;52.532;13.348;2023-07-29T09:40:13;27.36;58.23
20862;DHT22;10591;52.532;13.348;2023-07-29T09:42:50;27.32;58.07
20862;DHT22;10591;52.532;13.348;2023-07-29T09:45:26;27.20;57.86
20862;DHT22;10591;52.532;13.348;2023-07-29T09:47:58;27.08;58.43
20862;DHT22;10591;52.532;13.348;2023-07-29T09:50:31;26.84;59.01
20862;DHT22;10591;52.532;13.348;2023-07-29T09:53:02;26.83;59.93
20862;DHT22;10591;52.532;13.348;2023-07-29T09:55:34;26.83;59.90
20862;DHT22;10591;52.532;13.348;2023-07-29T09:58:05;26.81;60.02
20862;DHT22;10591;52.532;13.348;2023-07-29T10:00:38;26.42;61.30
20862;DHT22;10591;52.532;13.348;2023-07-29T10:03:11;26.26;61.54
20862;DHT22;10591;52.532;13.348;2023-07-29T10:05:43;26.32;61.70
20862;DHT22;10591;52.532;13.348;2023-07-29T10:08:14;25.63;63.01
20862;DHT22;10591;52.532;13.348;2023-07-29T10:10:46;25.40;63.90
20862;DHT22;10591;52.532;13.348;2023-07-29T10:13:17;25.96;62.49
20862;DHT22;10591;52.532;13.348;2023-07-29T10:15:50;25.89;62.15
20862;DHT22;10591;52.532;13.348;2023-07-29T10:18:23;26.28;61.43
20862;DHT22;10591;52.532;13.348;2023-07-29T10:20:54;26.58;60.69
20862;DHT22;10591;52.532;13.348;2023-07-29T10:23:30;26.96;59.64
20862;DHT22;10591;52.532;13.348;2023-07-29T10:26:04;26.33;61.04
20862;DHT22;10591;52.532;13.348;2023-07-29T10:28:40;25.60;62.62
20862;DHT22;10591;52.532;13.348;2023-07-29T10:31:12;25.90;62.27
20862;DHT22;10591;52.532;13.348;2023-07-29T10:33:44;25.08;64.25
20862;DHT22;10591;52.532;13.348;2023-07-29T10:36:16;25.00;64.01
20862;DHT22;10591;52.532;13.348;2023-07-29T10:38:49;26.06;61.97
20862;DHT22;10591;52.532;13.348;2023-07-29T10:41:20;26.81;59.96
20862;DHT22;10591;52.532;13.348;2023-07-29T10:43:52;27.50;57.60
20862;DHT22;10591;52.532;13.348;2023-07-29T10:46:23;27.90;56.31
20862;DHT22;10591;52.532;13.348;2023-07-29T10:48:56;27.36;57.39
20862;DHT22;10591;52.532;13.348;2023-07-29T10:51:35;27.07;57.66
20862;DHT22;10591;52.532;13.348;2023-07-29T10:54:14;27.29;57.66
20862;DHT22;10591;52.532;13.348;2023-07-29T10:56:51;26.50;59.94
20862;DHT22;10591;52.532;13.348;2023-07-29T10:59:30;26.76;59.79
20862;DHT22;10591;52.532;13.348;2023-07-29T11:02:00;26.26;60.88
20862;DHT22;10591;52.532;13.348;2023-07-29T11:04:31;26.01;61.38
20862;DHT22;10591;52.532;13.348;2023-07-29T11:12:48;24.56;65.81
20862;DHT22;10591;52.532;13.348;2023-07-29T11:15:28;22.20;78.27
20862;DHT22;10591;52.532;13.348;2023-07-29T11:17:59;20.46;82.04
20862;DHT22;10591;52.532;13.348;2023-07-29T11:20:34;18.95;85.67
20862;DHT22;10591;52.532;13.348;2023-07-29T11:23:04;18.80;85.89
20862;DHT22;10591;52.532;13.348;2023-07-29T11:25:35;18.84;84.71
20862;DHT22;10591;52.532;13.348;2023-07-29T11:28:06;18.68;86.07
20862;DHT22;10591;52.532;13.348;2023-07-29T11:30:40;18.80;86.85
20862;DHT22;10591;52.532;13.348;2023-07-29T11:33:11;18.96;87.08
20862;DHT22;10591;52.532;13.348;2023-07-29T11:35:44;19.08;87.12
20862;DHT22;10591;52.532;13.348;2023-07-29T11:38:18;19.13;87.17
20862;DHT22;10591;52.532;13.348;2023-07-29T11:41:03;19.50;86.82
20862;DHT22;10591;52.532;13.348;2023-07-29T11:43:34;19.66;86.54
20862;DHT22;10591;52.532;13.348;2023-07-29T11:46:05;20.02;86.08
20862;DHT22;10591;52.532;13.348;2023-07-29T11:48:37;20.11;86.09
20862;DHT22;10591;52.532;13.348;2023-07-29T11:51:08;20.32;85.65
20862;DHT22;10591;52.532;13.348;2023-07-29T11:53:42;20.41;85.92
20862;DHT22;10591;52.532;13.348;2023-07-29T11:56:13;20.46;86.25
20862;DHT22;10591;52.532;13.348;2023-07-29T11:58:46;20.18;85.86
20862;DHT22;10591;52.532;13.348;2023-07-29T12:01:20;20.08;85.57
20862;DHT22;10591;52.532;13.348;2023-07-29T12:03:51;20.05;85.78
20862;DHT22;10591;52.532;13.348;2023-07-29T12:06:23;19.91;86.29
20862;DHT22;10591;52.532;13.348;2023-07-29T12:08:55;19.97;86.26
20862;DHT22;10591;52.532;13.348;2023-07-29T12:11:26;20.19;86.60
20862;DHT22;10591;52.532;13.348;2023-07-29T12:13:57;20.29;86.60
20862;DHT22;10591;52.532;13.348;2023-07-29T12:16:30;20.38;86.13
20862;DHT22;10591;52.532;13.348;2023-07-29T12:19:04;20.18;84.93
20862;DHT22;10591;52.532;13.348;2023-07-29T12:21:35;20.54;84.88
20862;DHT22;10591;52.532;13.348;2023-07-29T12:24:06;20.55;84.39
20862;DHT22;10591;52.532;13.348;2023-07-29T12:26:37;20.64;83.86
20862;DHT22;10591;52.532;13.348;2023-07-29T12:29:16;20.99;84.01
20862;DHT22;10591;52.532;13.348;2023-07-29T12:31:56;21.23;83.34
20862;DHT22;10591;52.532;13.348;2023-07-29T12:34:24;21.51;83.30
20862;DHT22;10591;52.532;13.348;2023-07-29T12:36:58;21.82;83.15
20862;DHT22;10591;52.532;13.348;2023-07-29T12:39:31;22.07;81.64
20862;DHT22;10591;52.532;13.348;2023-07-29T12:42:03;22.64;79.80
20862;DHT22;10591;52.532;13.348;2023-07-29T12:44:37;23.10;79.39
20862;DHT22;10591;52.532;13.348;2023-07-29T12:47:08;23.86;77.55
20862;DHT22;10591;52.532;13.348;2023-07-29T12:49:41;24.48;76.62
20862;DHT22;10591;52.532;13.348;2023-07-29T12:52:11;24.94;74.64
20862;DHT22;10591;52.532;13.348;2023-07-29T12:54:43;25.11;72.19
20862;DHT22;10591;52.532;13.348;2023-07-29T12:57:14;25.14;71.16
20862;DHT22;10591;52.532;13.348;2023-07-29T12:59:48;25.42;70.84
20862;DHT22;10591;52.532;13.348;2023-07-29T13:02:19;25.00;72.12
20862;DHT22;10591;52.532;13.348;2023-07-29T13:04:51;24.74;71.70
20862;DHT22;10591;52.532;13.348;2023-07-29T13:07:22;24.60;72.99
20862;DHT22;10591;52.532;13.348;2023-07-29T13:09:53;24.44;73.33
20862;DHT22;10591;52.532;13.348;2023-07-29T13:12:23;24.30;72.93
20862;DHT22;10591;52.532;13.348;2023-07-29T13:14:54;24.08;73.98
20862;DHT22;10591;52.532;13.348;2023-07-29T13:17:25;23.86;75.05
20862;DHT22;10591;52.532;13.348;2023-07-29T13:19:56;23.94;74.61
20862;DHT22;10591;52.532;13.348;2023-07-29T13:22:26;24.30;74.10
20862;DHT22;10591;52.532;13.348;2023-07-29T13:24:57;24.48;72.49
20862;DHT22;10591;52.532;13.348;2023-07-29T13:27:28;24.46;72.78
20862;DHT22;10591;52.532;13.348;2023-07-29T13:29:58;24.66;71.66
20862;DHT22;10591;52.532;13.348;2023-07-29T13:32:31;25.06;70.78
20862;DHT22;10591;52.532;13.348;2023-07-29T13:35:01;24.84;69.17
20862;DHT22;10591;52.532;13.348;2023-07-29T13:37:33;25.16;69.05
20862;DHT22;10591;52.532;13.348;2023-07-29T13:40:05;25.20;68.48
20862;DHT22;10591;52.532;13.348;2023-07-29T13:42:36;25.26;68.64
20862;DHT22;10591;52.532;13.348;2023-07-29T13:45:08;25.07;68.78
20862;DHT22;10591;52.532;13.348;2023-07-29T13:47:41;25.39;68.28
20862;DHT22;10591;52.532;13.348;2023-07-29T13:50:13;25.07;67.19
20862;DHT22;10591;52.532;13.348;2023-07-29T13:52:45;24.76;66.32
20862;DHT22;10591;52.532;13.348;2023-07-29T13:55:16;24.87;67.42
20862;DHT22;10591;52.532;13.348;2023-07-29T13:57:47;24.84;67.67
20862;DHT22;10591;52.532;13.348;2023-07-29T14:00:18;25.27;67.54
20862;DHT22;10591;52.532;13.348;2023-07-29T14:02:49;25.01;67.44
20862;DHT22;10591;52.532;13.348;2023-07-29T14:05:20;25.16;67.72
20862;DHT22;10591;52.532;13.348;2023-07-29T14:07:51;24.64;67.84
20862;DHT22;10591;52.532;13.348;2023-07-29T14:10:21;25.24;67.10
20862;DHT22;10591;52.532;13.348;2023-07-29T14:12:52;25.23;65.73
20862;DHT22;10591;52.532;13.348;2023-07-29T14:15:23;25.47;64.95
20862;DHT22;10591;52.532;13.348;2023-07-29T14:17:55;25.66;64.06
20862;DHT22;10591;52.532;13.348;2023-07-29T14:20:27;25.61;64.90
20862;DHT22;10591;52.532;13.348;2023-07-29T14:22:57;25.44;64.91
20862;DHT22;10591;52.532;13.348;2023-07-29T14:25:28;25.18;64.98
20862;DHT22;10591;52.532;13.348;2023-07-29T14:27:59;25.26;64.64
20862;DHT22;10591;52.532;13.348;2023-07-29T14:30:33;25.37;64.63
20862;DHT22;10591;52.532;13.348;2023-07-29T14:33:05;25.31;64.50
20862;DHT22;10591;52.532;13.348;2023-07-29T14:35:36;25.33;64.80
20862;DHT22;10591;52.532;13.348;2023-07-29T14:38:06;25.78;63.63
20862;DHT22;10591;52.532;13.348;2023-07-29T14:40:37;25.86;63.20
20862;DHT22;10591;52.532;13.348;2023-07-29T14:43:08;25.67;63.85
20862;DHT22;10591;52.532;13.348;2023-07-29T14:45:38;25.55;63.68
20862;DHT22;10591;52.532;13.348;2023-07-29T14:48:09;25.05;64.64
20862;DHT22;10591;52.532;13.348;2023-07-29T14:50:40;24.86;65.75
20862;DHT22;10591;52.532;13.348;2023-07-29T14:53:12;24.64;65.99
20862;DHT22;10591;52.532;13.348;2023-07-29T14:55:43;24.48;66.74
20862;DHT22;10591;52.532;13.348;2023-07-29T14:58:14;24.58;67.31
20862;DHT22;10591;52.532;13.348;2023-07-29T15:00:45;24.44;67.66
20862;DHT22;10591;52.532;13.348;2023-07-29T15:03:16;24.41;67.30
20862;DHT22;10591;52.532;13.348;2023-07-29T15:05:46;24.22;67.59
20862;DHT22;10591;52.532;13.348;2023-07-29T15:08:17;23.94;68.81
20862;DHT22;10591;52.532;13.348;2023-07-29T15:10:49;24.10;68.67
20862;DHT22;10591;52.532;13.348;2023-07-29T15:13:20;23.73;69.25
20862;DHT22;10591;52.532;13.348;2023-07-29T15:15:51;23.83;69.49
20862;DHT22;10591;52.532;13.348;2023-07-29T15:18:22;23.76;68.40
20862;DHT22;10591;52.532;13.348;2023-07-29T15:20:54;23.67;69.04
20862;DHT22;10591;52.532;13.348;2023-07-29T15:23:24;23.32;69.67
20862;DHT22;10591;52.532;13.348;2023-07-29T15:25:57;23.12;70.48
20862;DHT22;10591;52.532;13.348;2023-07-29T15:28:30;23.00;70.82
20862;DHT22;10591;52.532;13.348;2023-07-29T15:31:01;22.88;71.41
20862;DHT22;10591;52.532;13.348;2023-07-29T15:33:33;21.46;71.70
20862;DHT22;10591;52.532;13.348;2023-07-29T15:36:04;20.30;76.66
20862;DHT22;10591;52.532;13.348;2023-07-29T15:38:35;19.37;80.72
20862;DHT22;10591;52.532;13.348;2023-07-29T15:41:06;18.82;83.53
20862;DHT22;10591;52.532;13.348;2023-07-29T15:43:37;18.77;82.38
20862;DHT22;10591;52.532;13.348;2023-07-29T15:46:08;18.38;82.97
20862;DHT22;10591;52.532;13.348;2023-07-29T15:48:39;18.00;84.47
20862;DHT22;10591;52.532;13.348;2023-07-29T15:51:10;17.90;84.89